Terminal Aerodrome Forecast
Issued by NWS

Home | Current Version | Previous Version | Text Only | Print | Product List | Glossary Off
Versions: 1 2 3 4 5 6 7 8 9 10 11 12 13 14 15 16 17 18 19 20 21 22 23 24 25 26 27 28 29 30 31 32 33 34 35 36 37 38 39 40 41 42 43 44 45 46 47 48 49 50

000
FTUS43 KLOT 301724
TAFGYY
TAF
KGYY 301724Z 3018/3118 02010G20KT 4SM -RA BR BKN008 OVC025
     FM301900 02017G26KT 4SM -RA BR OVC007
     FM302300 02018G28KT 3SM RA BR OVC004 WS015/04050KT
     FM310200 02022G32KT 6SM -SHRA BKN006 OVC012 WS020/04045KT
     FM310600 01020G30KT P6SM OVC012=

USA.gov is the U.S. government's official web portal to all federal, state and local government web resources and services.